createdAt,value
2023-10-06T00:00:14.502Z,50.902473
2023-10-06T00:01:14.521Z,50.902447
2023-10-06T00:02:14.483Z,50.902412
2023-10-06T00:03:14.466Z,50.902386
2023-10-06T00:04:14.486Z,50.902466
2023-10-06T00:05:14.461Z,50.902451
2023-10-06T00:06:14.466Z,50.902409
2023-10-06T00:07:14.440Z,50.902439
2023-10-06T00:08:14.461Z,50.902447
2023-10-06T00:09:14.453Z,50.902409
2023-10-06T00:10:14.417Z,50.902405
2023-10-06T00:11:14.428Z,50.902386
2023-10-06T00:12:14.482Z,50.902393
2023-10-06T00:13:14.430Z,50.902431
2023-10-06T00:14:14.384Z,50.902409
2023-10-06T00:15:14.455Z,50.902401
2023-10-06T00:16:14.397Z,50.902386
2023-10-06T00:17:14.404Z,50.902401
2023-10-06T00:18:14.375Z,50.902390
2023-10-06T00:19:14.344Z,50.902409
2023-10-06T00:20:14.337Z,50.902401
2023-10-06T00:21:14.326Z,50.902401
2023-10-06T00:22:14.321Z,50.902397
2023-10-06T00:23:14.396Z,50.902412
2023-10-06T00:24:14.293Z,50.902405
2023-10-06T00:25:14.319Z,50.902409
2023-10-06T00:26:14.283Z,50.902428
2023-10-06T00:27:14.284Z,50.902428
2023-10-06T00:28:14.294Z,50.902412
2023-10-06T00:29:14.265Z,50.902409
2023-10-06T00:30:15.259Z,50.902386
2023-10-06T00:31:14.358Z,50.902390
2023-10-06T00:32:14.334Z,50.902409
2023-10-06T00:33:14.267Z,50.902412
2023-10-06T00:34:14.226Z,50.902401
2023-10-06T00:35:14.244Z,50.902420
2023-10-06T00:36:14.211Z,50.902431
2023-10-06T00:37:14.304Z,50.902409
2023-10-06T00:38:14.319Z,50.902420
2023-10-06T00:39:14.199Z,50.902424
2023-10-06T00:40:14.192Z,50.902420
2023-10-06T00:41:14.171Z,50.902405
2023-10-06T00:42:14.186Z,50.902424
2023-10-06T00:43:14.163Z,50.902431
2023-10-06T00:44:14.144Z,50.902424
2023-10-06T00:45:14.143Z,50.902409
2023-10-06T00:46:14.157Z,50.902416
2023-10-06T00:47:14.317Z,50.902409
2023-10-06T00:48:14.201Z,50.902420
2023-10-06T00:49:14.099Z,50.902420
2023-10-06T00:50:14.119Z,50.902424
2023-10-06T00:51:14.113Z,50.902416
2023-10-06T00:52:14.116Z,50.902428
2023-10-06T00:53:14.079Z,50.902424
2023-10-06T00:54:14.066Z,50.902428
2023-10-06T00:55:14.165Z,50.902451
2023-10-06T00:56:14.185Z,50.902435
2023-10-06T00:57:14.084Z,50.902470
2023-10-06T00:58:14.027Z,50.902451
2023-10-06T00:59:14.078Z,50.902435
2023-10-06T01:00:14.024Z,50.902420
2023-10-06T01:01:14.222Z,50.902435
2023-10-06T01:02:14.041Z,50.902401
2023-10-06T01:03:14.159Z,50.902420
2023-10-06T01:04:13.983Z,50.902409
2023-10-06T01:05:14.005Z,50.902416
2023-10-06T01:06:14.043Z,50.902420
2023-10-06T01:07:13.983Z,50.902424
2023-10-06T01:08:13.969Z,50.902435
2023-10-06T01:09:13.990Z,50.902424
2023-10-06T01:10:13.973Z,50.902420
2023-10-06T01:11:13.943Z,50.902451
2023-10-06T01:12:13.967Z,50.902439
2023-10-06T01:13:13.975Z,50.902428
2023-10-06T01:14:13.913Z,50.902435
2023-10-06T01:15:13.948Z,50.902447
2023-10-06T01:16:13.936Z,50.902431
2023-10-06T01:17:13.955Z,50.902397
2023-10-06T01:18:13.887Z,50.902420
2023-10-06T01:19:14.005Z,50.902412
2023-10-06T01:20:13.897Z,50.902401
2023-10-06T01:21:13.858Z,50.902397
2023-10-06T01:22:13.856Z,50.902405
2023-10-06T01:23:13.844Z,50.902416
2023-10-06T01:24:13.859Z,50.902416
2023-10-06T01:25:13.840Z,50.902393
2023-10-06T01:26:13.820Z,50.902424
2023-10-06T01:27:13.817Z,50.902393
2023-10-06T01:28:14.053Z,50.902412
2023-10-06T01:29:13.957Z,50.902420
2023-10-06T01:30:13.790Z,50.902405
2023-10-06T01:31:13.807Z,50.902416
2023-10-06T01:32:13.797Z,50.902424
2023-10-06T01:33:13.770Z,50.902424
2023-10-06T01:34:14.174Z,50.902401
2023-10-06T01:35:13.845Z,50.902405
2023-10-06T01:36:13.750Z,50.902443
2023-10-06T01:37:13.746Z,50.902428
2023-10-06T01:38:13.728Z,50.902405
2023-10-06T01:39:13.747Z,50.902416
2023-10-06T01:40:13.709Z,50.902416
2023-10-06T01:41:13.709Z,50.902416
2023-10-06T01:42:13.697Z,50.902412
2023-10-06T01:43:13.728Z,50.902409
2023-10-06T01:44:13.741Z,50.902431
2023-10-06T01:45:13.680Z,50.902428
2023-10-06T01:46:13.781Z,50.902424
2023-10-06T01:47:13.657Z,50.902431
2023-10-06T01:48:13.672Z,50.902428
2023-10-06T01:49:14.805Z,50.902435
2023-10-06T01:50:14.641Z,50.902435
2023-10-06T01:51:13.707Z,50.902435
2023-10-06T01:52:13.621Z,50.902416
2023-10-06T01:53:13.634Z,50.902435
2023-10-06T01:54:13.601Z,50.902428
2023-10-06T01:55:13.595Z,50.902439
2023-10-06T01:56:13.640Z,50.902435
2023-10-06T01:57:13.583Z,50.902431
2023-10-06T01:58:13.606Z,50.902431
2023-10-06T01:59:13.597Z,50.902409
2023-10-06T02:00:13.557Z,50.902412
2023-10-06T02:01:13.571Z,50.902401
2023-10-06T02:02:13.687Z,50.902428
2023-10-06T02:03:13.639Z,50.902424
2023-10-06T02:04:13.525Z,50.902412
2023-10-06T02:05:13.585Z,50.902393
2023-10-06T02:06:13.510Z,50.902409
2023-10-06T02:07:13.612Z,50.902412
2023-10-06T02:08:13.528Z,50.902401
2023-10-06T02:09:13.496Z,50.902416
2023-10-06T02:10:13.480Z,50.902416
2023-10-06T02:11:13.518Z,50.902405
2023-10-06T02:12:13.494Z,50.902412
2023-10-06T02:13:13.464Z,50.902412
2023-10-06T02:14:13.445Z,50.902397
2023-10-06T02:15:13.459Z,50.902412
2023-10-06T02:16:13.428Z,50.902397
2023-10-06T02:17:13.580Z,50.902405
2023-10-06T02:18:13.472Z,50.902397
2023-10-06T02:19:13.407Z,50.902390
2023-10-06T02:20:13.399Z,50.902416
2023-10-06T02:21:13.414Z,50.902412
2023-10-06T02:22:13.408Z,50.902416
2023-10-06T02:23:13.452Z,50.902386
2023-10-06T02:24:13.372Z,50.902397
2023-10-06T02:25:13.384Z,50.902386
2023-10-06T02:26:13.462Z,50.902401
2023-10-06T02:27:13.380Z,50.902405
2023-10-06T02:28:13.337Z,50.902409
2023-10-06T02:29:13.342Z,50.902416
2023-10-06T02:30:13.327Z,50.902405
2023-10-06T02:31:13.391Z,50.902409
2023-10-06T02:32:13.327Z,50.902401
2023-10-06T02:33:13.309Z,50.902397
2023-10-06T02:34:13.301Z,50.902397
2023-10-06T02:35:13.541Z,50.902397
2023-10-06T02:36:13.298Z,50.902382
2023-10-06T02:37:13.267Z,50.902405
2023-10-06T02:38:13.259Z,50.902401
2023-10-06T02:39:13.324Z,50.902428
2023-10-06T02:40:13.249Z,50.902401
2023-10-06T02:41:13.310Z,50.902409
2023-10-06T02:42:13.229Z,50.902401
2023-10-06T02:43:13.232Z,50.902401
2023-10-06T02:44:14.218Z,50.902393
2023-10-06T02:45:13.239Z,50.902405
2023-10-06T02:46:13.219Z,50.902405
2023-10-06T02:47:47.679Z,50.902420
2023-10-06T02:48:13.196Z,50.902397
2023-10-06T02:49:13.170Z,50.902428
2023-10-06T02:50:13.201Z,50.902416
2023-10-06T02:51:13.155Z,50.902416
2023-10-06T02:52:13.153Z,50.902405
2023-10-06T02:53:13.179Z,50.902401
2023-10-06T02:54:13.144Z,50.902412
2023-10-06T02:55:13.238Z,50.902401
2023-10-06T02:56:13.168Z,50.902393
2023-10-06T02:57:13.110Z,50.902416
2023-10-06T02:58:13.119Z,50.902382
2023-10-06T02:59:13.122Z,50.902412
2023-10-06T03:00:14.117Z,50.902401
2023-10-06T03:01:13.105Z,50.902390
2023-10-06T03:02:13.124Z,50.902401
2023-10-06T03:03:13.265Z,50.902401
2023-10-06T03:04:13.115Z,50.902409
2023-10-06T03:05:13.118Z,50.902428
2023-10-06T03:06:13.058Z,50.902416
2023-10-06T03:07:13.080Z,50.902405
2023-10-06T03:08:13.133Z,50.902386
2023-10-06T03:09:13.048Z,50.902370
2023-10-06T03:10:13.024Z,50.902367
2023-10-06T03:11:13.134Z,50.902405
2023-10-06T03:12:13.049Z,50.902390
2023-10-06T03:13:12.992Z,50.902428
2023-10-06T03:14:13.052Z,50.902431
2023-10-06T03:15:12.982Z,50.902435
2023-10-06T03:16:12.969Z,50.902409
2023-10-06T03:17:13.093Z,50.902397
2023-10-06T03:18:14.044Z,50.902386
2023-10-06T03:19:12.973Z,50.902378
2023-10-06T03:20:13.001Z,50.902409
2023-10-06T03:21:12.949Z,50.902424
2023-10-06T03:22:12.933Z,50.902435
2023-10-06T03:23:13.000Z,50.902420
2023-10-06T03:24:12.917Z,50.902412
2023-10-06T03:25:12.909Z,50.902424
2023-10-06T03:26:12.935Z,50.902409
2023-10-06T03:27:12.962Z,50.902401
2023-10-06T03:28:12.915Z,50.902401
2023-10-06T03:29:13.122Z,50.902416
2023-10-06T03:30:12.865Z,50.902447
2023-10-06T03:31:12.940Z,50.902424
2023-10-06T03:32:12.974Z,50.902393
2023-10-06T03:33:12.860Z,50.902401
2023-10-06T03:34:12.826Z,50.902393
2023-10-06T03:35:12.984Z,50.902348
2023-10-06T03:36:12.812Z,50.902409
2023-10-06T03:37:12.857Z,50.902405
2023-10-06T03:38:12.811Z,50.902435
2023-10-06T03:39:13.165Z,50.902393
2023-10-06T03:40:12.791Z,50.902412
2023-10-06T03:41:12.796Z,50.902447
2023-10-06T03:42:12.801Z,50.902367
2023-10-06T03:43:12.851Z,50.902390
2023-10-06T03:44:12.803Z,50.902390
2023-10-06T03:45:12.745Z,50.902370
2023-10-06T03:46:12.786Z,50.902382
2023-10-06T03:47:12.817Z,50.902378
2023-10-06T03:48:12.766Z,50.902424
2023-10-06T03:49:12.711Z,50.902374
2023-10-06T03:50:12.744Z,50.902405
2023-10-06T03:51:12.740Z,50.902409
2023-10-06T03:52:12.716Z,50.902382
2023-10-06T03:53:12.709Z,50.902386
2023-10-06T03:54:13.686Z,50.902401
2023-10-06T03:55:12.670Z,50.902401
2023-10-06T03:56:12.742Z,50.902412
2023-10-06T03:57:12.662Z,50.902428
2023-10-06T03:58:12.680Z,50.902424
2023-10-06T03:59:12.767Z,50.902405
2023-10-06T04:00:12.627Z,50.902397
2023-10-06T04:01:12.662Z,50.902378
2023-10-06T04:02:12.660Z,50.902378
2023-10-06T04:03:12.664Z,50.902382
2023-10-06T04:04:12.633Z,50.902370
2023-10-06T04:05:12.647Z,50.902405
2023-10-06T04:06:12.617Z,50.902412
2023-10-06T04:07:12.622Z,50.902397
2023-10-06T04:08:12.637Z,50.902401
2023-10-06T04:09:12.621Z,50.902393
2023-10-06T04:10:12.595Z,50.902405
2023-10-06T04:11:12.560Z,50.902390
2023-10-06T04:12:12.542Z,50.902393
2023-10-06T04:13:12.588Z,50.902409
2023-10-06T04:14:12.543Z,50.902405
2023-10-06T04:15:12.648Z,50.902386
2023-10-06T04:16:12.514Z,50.902386
2023-10-06T04:17:12.506Z,50.902370
2023-10-06T04:18:12.498Z,50.902393
2023-10-06T04:19:12.496Z,50.902378
2023-10-06T04:20:12.531Z,50.902420
2023-10-06T04:21:12.477Z,50.902416
2023-10-06T04:22:12.470Z,50.902370
2023-10-06T04:23:12.539Z,50.902409
2023-10-06T04:24:12.461Z,50.902370
2023-10-06T04:25:12.470Z,50.902370
2023-10-06T04:26:12.472Z,50.902382
2023-10-06T04:27:12.434Z,50.902393
2023-10-06T04:28:12.425Z,50.902390
2023-10-06T04:29:12.525Z,50.902351
2023-10-06T04:30:12.431Z,50.902367
2023-10-06T04:31:12.500Z,50.902397
2023-10-06T04:32:12.430Z,50.902378
2023-10-06T04:33:12.393Z,50.902401
2023-10-06T04:34:12.407Z,50.902412
2023-10-06T04:35:12.428Z,50.902359
2023-10-06T04:36:12.357Z,50.902374
2023-10-06T04:37:12.368Z,50.902386
2023-10-06T04:38:12.358Z,50.902435
2023-10-06T04:39:12.368Z,50.902428
2023-10-06T04:40:12.329Z,50.902435
2023-10-06T04:41:12.361Z,50.902401
2023-10-06T04:42:12.328Z,50.902470
2023-10-06T04:43:12.310Z,50.902477
2023-10-06T04:44:12.345Z,50.902477
2023-10-06T04:45:12.297Z,50.902458
2023-10-06T04:46:12.308Z,50.902401
2023-10-06T04:47:12.391Z,50.902359
2023-10-06T04:48:12.295Z,50.902431
2023-10-06T04:49:12.289Z,50.902416
2023-10-06T04:50:12.291Z,50.902424
2023-10-06T04:51:12.259Z,50.902615
2023-10-06T04:52:12.304Z,50.902424
2023-10-06T04:53:12.358Z,50.902370
2023-10-06T04:54:12.239Z,50.902435
2023-10-06T04:55:12.228Z,50.902420
2023-10-06T04:56:12.293Z,50.902435
2023-10-06T04:57:12.232Z,50.902428
2023-10-06T04:58:12.219Z,50.902420
2023-10-06T04:59:12.441Z,50.902428
2023-10-06T05:00:12.188Z,50.902454
2023-10-06T05:01:12.202Z,50.902367
2023-10-06T05:02:12.345Z,50.902416
2023-10-06T05:03:12.750Z,50.902458
2023-10-06T05:04:12.152Z,50.902431
2023-10-06T05:05:12.224Z,50.902454
2023-10-06T05:06:12.137Z,50.902466
2023-10-06T05:07:12.171Z,50.902451
2023-10-06T05:08:12.162Z,50.902412
2023-10-06T05:09:12.118Z,50.902447
2023-10-06T05:10:12.117Z,50.902473
2023-10-06T05:11:12.627Z,50.902424
2023-10-06T05:12:13.136Z,50.902435
2023-10-06T05:13:12.090Z,50.902424
2023-10-06T05:14:12.080Z,50.902431
2023-10-06T05:15:12.070Z,50.902443
2023-10-06T05:16:12.108Z,50.902451
2023-10-06T05:17:12.087Z,50.902451
2023-10-06T05:18:12.068Z,50.902439
2023-10-06T05:19:12.107Z,50.902431
2023-10-06T05:20:12.083Z,50.902428
2023-10-06T05:21:12.040Z,50.902409
2023-10-06T05:22:12.016Z,50.902412
2023-10-06T05:23:12.067Z,50.902412
2023-10-06T05:24:11.995Z,50.902412
2023-10-06T05:25:11.991Z,50.902412
2023-10-06T05:26:12.267Z,50.902412
2023-10-06T05:27:11.969Z,50.902412
2023-10-06T05:28:12.002Z,50.902473
2023-10-06T05:29:12.976Z,50.902435
2023-10-06T05:30:11.970Z,50.902431
2023-10-06T05:31:12.245Z,50.902401
2023-10-06T05:32:12.055Z,50.902401
2023-10-06T05:33:11.955Z,50.902431
2023-10-06T05:34:11.950Z,50.902424
2023-10-06T05:35:12.031Z,50.902416
2023-10-06T05:36:12.437Z,50.902412
2023-10-06T05:37:11.892Z,50.902374
2023-10-06T05:38:11.921Z,50.902397
2023-10-06T05:39:11.883Z,50.902405
2023-10-06T05:40:11.894Z,50.902409
2023-10-06T05:41:11.918Z,50.902367
2023-10-06T05:42:11.854Z,50.902409
2023-10-06T05:43:11.852Z,50.902393
2023-10-06T05:44:11.907Z,50.902420
2023-10-06T05:45:11.914Z,50.902412
2023-10-06T05:46:11.867Z,50.902405
2023-10-06T05:47:11.874Z,50.902428
2023-10-06T05:48:11.826Z,50.902431
2023-10-06T05:49:11.815Z,50.902424
2023-10-06T05:50:11.892Z,50.902409
2023-10-06T05:51:12.524Z,50.902424
2023-10-06T05:52:12.782Z,50.902416
2023-10-06T05:53:11.797Z,50.902409
2023-10-06T05:54:11.768Z,50.902405
2023-10-06T05:55:11.790Z,50.902420
2023-10-06T05:56:11.934Z,50.902409
2023-10-06T05:57:11.745Z,50.902420
2023-10-06T05:58:11.737Z,50.902416
2023-10-06T05:59:11.984Z,50.902401
2023-10-06T06:00:11.756Z,50.902420
2023-10-06T06:01:12.019Z,50.902431
2023-10-06T06:02:11.717Z,50.902416
2023-10-06T06:03:11.736Z,50.902435
2023-10-06T06:04:11.721Z,50.902458
2023-10-06T06:05:11.773Z,50.902431
2023-10-06T06:06:11.684Z,50.902409
2023-10-06T06:07:11.744Z,50.902416
2023-10-06T06:08:11.693Z,50.902424
2023-10-06T06:09:11.707Z,50.902424
2023-10-06T06:10:11.638Z,50.902451
2023-10-06T06:11:11.683Z,50.902420
2023-10-06T06:12:11.634Z,50.902424
2023-10-06T06:13:11.619Z,50.902428
2023-10-06T06:14:17.792Z,50.902405
2023-10-06T06:15:13.618Z,50.902409
2023-10-06T06:16:11.771Z,50.902424
2023-10-06T06:17:11.644Z,50.902443
2023-10-06T06:18:11.602Z,50.902439
2023-10-06T06:19:11.601Z,50.902424
2023-10-06T06:20:18.256Z,50.902420
2023-10-06T06:21:13.685Z,50.902428
2023-10-06T06:22:11.561Z,50.902420
2023-10-06T06:23:11.704Z,50.902431
2023-10-06T06:24:11.575Z,50.902447
2023-10-06T06:25:11.534Z,50.902454
2023-10-06T06:26:11.569Z,50.902443
2023-10-06T06:27:11.520Z,50.902439
2023-10-06T06:28:11.536Z,50.902435
2023-10-06T06:29:11.803Z,50.902489
2023-10-06T06:30:11.489Z,50.902496
2023-10-06T06:31:11.495Z,50.902466
2023-10-06T06:32:11.483Z,50.902470
2023-10-06T06:33:11.544Z,50.902458
2023-10-06T06:34:11.482Z,50.902447
2023-10-06T06:35:11.545Z,50.902481
2023-10-06T06:36:11.448Z,50.902351
2023-10-06T06:37:11.441Z,50.902416
2023-10-06T06:38:11.544Z,50.902412
2023-10-06T06:39:11.568Z,50.902420
2023-10-06T06:40:11.432Z,50.902420
2023-10-06T06:41:11.503Z,50.902466
2023-10-06T06:42:11.435Z,50.902493
2023-10-06T06:43:11.413Z,50.902431
2023-10-06T06:44:11.433Z,50.902451
2023-10-06T06:45:11.369Z,50.902447
2023-10-06T06:46:11.395Z,50.902447
2023-10-06T06:47:11.401Z,50.902332
2023-10-06T06:48:11.360Z,50.902409
2023-10-06T06:49:11.346Z,50.902431
2023-10-06T06:50:13.687Z,50.902420
2023-10-06T06:51:12.329Z,50.902454
2023-10-06T06:52:11.346Z,50.902462
2023-10-06T06:53:11.384Z,50.902416
2023-10-06T06:54:11.309Z,50.902454
2023-10-06T06:55:11.378Z,50.902405
2023-10-06T06:56:11.413Z,50.902451
2023-10-06T06:57:11.310Z,50.902439
2023-10-06T06:58:11.277Z,50.902431
2023-10-06T06:59:11.439Z,50.902412
2023-10-06T07:00:11.284Z,50.902470
2023-10-06T07:01:11.319Z,50.902443
2023-10-06T07:02:11.379Z,50.902428
2023-10-06T07:03:11.289Z,50.902412
2023-10-06T07:04:11.233Z,50.902431
2023-10-06T07:05:11.268Z,50.902435
2023-10-06T07:06:11.239Z,50.902405
2023-10-06T07:07:11.213Z,50.902451
2023-10-06T07:08:11.249Z,50.902435
2023-10-06T07:09:11.173Z,50.902451
2023-10-06T07:10:12.227Z,50.902439
2023-10-06T07:11:11.300Z,50.902424
2023-10-06T07:12:11.193Z,50.902431
2023-10-06T07:13:11.156Z,50.902424
2023-10-06T07:14:11.171Z,50.902428
2023-10-06T07:15:11.188Z,50.902428
2023-10-06T07:16:11.210Z,50.902428
2023-10-06T07:17:11.199Z,50.902451
2023-10-06T07:18:11.278Z,50.902370
2023-10-06T07:19:11.145Z,50.902451
2023-10-06T07:20:11.190Z,50.902431
2023-10-06T07:21:11.213Z,50.902424
2023-10-06T07:22:11.100Z,50.902405
2023-10-06T07:23:11.094Z,50.902412
2023-10-06T07:24:11.088Z,50.902412
2023-10-06T07:25:11.108Z,50.902424
2023-10-06T07:26:11.083Z,50.902431
2023-10-06T07:27:11.122Z,50.902416
2023-10-06T07:28:11.038Z,50.902416
2023-10-06T07:29:11.200Z,50.902428
2023-10-06T07:30:11.026Z,50.902412
2023-10-06T07:31:11.036Z,50.902409
2023-10-06T07:32:11.047Z,50.902393
2023-10-06T07:33:11.028Z,50.902390
2023-10-06T07:34:11.268Z,50.902401
2023-10-06T07:35:12.007Z,50.902416
2023-10-06T07:36:10.983Z,50.902424
2023-10-06T07:37:10.985Z,50.902405
2023-10-06T07:38:11.041Z,50.902412
2023-10-06T07:39:11.029Z,50.902409
2023-10-06T07:40:10.950Z,50.902382
2023-10-06T07:41:10.995Z,50.902412
2023-10-06T07:42:10.930Z,50.902420
2023-10-06T07:43:11.056Z,50.902420
2023-10-06T07:44:11.054Z,50.902393
2023-10-06T07:45:10.905Z,50.902439
2023-10-06T07:46:10.928Z,50.902390
2023-10-06T07:47:10.913Z,50.902401
2023-10-06T07:48:11.172Z,50.902412
2023-10-06T07:49:11.140Z,50.902454
2023-10-06T07:50:10.917Z,50.902401
2023-10-06T07:51:10.871Z,50.902397
2023-10-06T07:52:10.880Z,50.902412
2023-10-06T07:53:10.954Z,50.902462
2023-10-06T07:54:11.012Z,50.902435
2023-10-06T07:55:10.845Z,50.902397
2023-10-06T07:56:10.911Z,50.902370
2023-10-06T07:57:10.838Z,50.902397
2023-10-06T07:58:10.819Z,50.902447
2023-10-06T07:59:10.968Z,50.902390
2023-10-06T08:00:10.805Z,50.902390
2023-10-06T08:01:10.808Z,50.902393
2023-10-06T08:02:10.894Z,50.902393
2023-10-06T08:03:10.815Z,50.902393
2023-10-06T08:04:10.952Z,50.902390
2023-10-06T08:05:10.895Z,50.902382
2023-10-06T08:06:10.782Z,50.902401
2023-10-06T08:07:10.787Z,50.902409
2023-10-06T08:08:10.842Z,50.902397
2023-10-06T08:09:10.723Z,50.902370
2023-10-06T08:10:10.721Z,50.902370
2023-10-06T08:11:10.992Z,50.902401
2023-10-06T08:12:10.702Z,50.902359
2023-10-06T08:13:10.697Z,50.902359
2023-10-06T08:14:10.830Z,50.902386
2023-10-06T08:15:10.858Z,50.902397
2023-10-06T08:16:10.719Z,50.902405
2023-10-06T08:17:10.708Z,50.902412
2023-10-06T08:18:10.686Z,50.902405
2023-10-06T08:19:10.652Z,50.902424
2023-10-06T08:20:10.799Z,50.902454
2023-10-06T08:21:10.664Z,50.902435
2023-10-06T08:22:10.637Z,50.902412
2023-10-06T08:23:10.678Z,50.902412
2023-10-06T08:24:10.790Z,50.902405
2023-10-06T08:25:10.635Z,50.902420
2023-10-06T08:26:10.743Z,50.902416
2023-10-06T08:27:10.590Z,50.902401
2023-10-06T08:28:10.579Z,50.902401
2023-10-06T08:29:10.612Z,50.902401
2023-10-06T08:30:10.610Z,50.902397
2023-10-06T08:31:10.679Z,50.902405
2023-10-06T08:32:10.616Z,50.902386
2023-10-06T08:33:10.901Z,50.902382
2023-10-06T08:34:10.717Z,50.902401
2023-10-06T08:35:10.658Z,50.902409
2023-10-06T08:36:10.510Z,50.902401
2023-10-06T08:37:11.503Z,50.902412
2023-10-06T08:38:10.654Z,50.902428
2023-10-06T08:39:10.536Z,50.902420
2023-10-06T08:40:10.482Z,50.902431
2023-10-06T08:41:10.616Z,50.902439
2023-10-06T08:42:10.469Z,50.902439
2023-10-06T08:43:10.466Z,50.902443
2023-10-06T08:44:10.641Z,50.902420
2023-10-06T08:45:10.459Z,50.902431
2023-10-06T08:46:10.543Z,50.902431
2023-10-06T08:47:26.175Z,50.902424
2023-10-06T08:48:12.618Z,50.902428
2023-10-06T08:49:10.541Z,50.902424
2023-10-06T08:50:10.446Z,50.902439
2023-10-06T08:51:10.400Z,50.902435
2023-10-06T08:52:10.396Z,50.902424
2023-10-06T08:53:10.463Z,50.902431
2023-10-06T08:54:10.474Z,50.902424
2023-10-06T08:55:10.373Z,50.902409
2023-10-06T08:56:10.376Z,50.902443
2023-10-06T08:57:10.353Z,50.902420
2023-10-06T08:58:10.374Z,50.902412
2023-10-06T08:59:10.371Z,50.902424
2023-10-06T09:00:10.330Z,50.902428
2023-10-06T09:01:10.377Z,50.902439
2023-10-06T09:02:10.376Z,50.902412
2023-10-06T09:03:11.285Z,50.902424
2023-10-06T09:04:11.605Z,50.902416
2023-10-06T09:05:10.377Z,50.902416
2023-10-06T09:06:10.293Z,50.902405
2023-10-06T09:07:10.291Z,50.902412
2023-10-06T09:08:11.327Z,50.902397
2023-10-06T09:09:10.274Z,50.902416
2023-10-06T09:10:10.254Z,50.902420
2023-10-06T09:11:10.254Z,50.902416
2023-10-06T09:12:10.272Z,50.902435
2023-10-06T09:13:10.235Z,50.902451
2023-10-06T09:14:10.549Z,50.902428
2023-10-06T09:15:10.235Z,50.902401
2023-10-06T09:16:10.247Z,50.902424
2023-10-06T09:17:10.286Z,50.902443
2023-10-06T09:18:10.233Z,50.902443
2023-10-06T09:19:10.312Z,50.902431
2023-10-06T09:20:20.182Z,50.902428
2023-10-06T09:21:12.164Z,50.902420
2023-10-06T09:22:10.193Z,50.902397
2023-10-06T09:23:10.195Z,50.902374
2023-10-06T09:24:10.430Z,50.902401
2023-10-06T09:25:10.137Z,50.902401
2023-10-06T09:26:10.245Z,50.902412
2023-10-06T09:27:10.356Z,50.902412
2023-10-06T09:28:10.131Z,50.902412
2023-10-06T09:29:10.192Z,50.902370
2023-10-06T09:30:10.111Z,50.902275
2023-10-06T09:31:10.216Z,50.902096
2023-10-06T09:32:10.105Z,50.902184
2023-10-06T09:33:10.092Z,50.902287
2023-10-06T09:34:10.993Z,50.902332
2023-10-06T09:35:10.216Z,50.902264
2023-10-06T09:36:10.125Z,50.902275
2023-10-06T09:37:11.040Z,50.902225
2023-10-06T09:38:10.056Z,50.902355
2023-10-06T09:39:10.032Z,50.902351
2023-10-06T09:40:10.063Z,50.902122
2023-10-06T09:41:10.130Z,50.902222
2023-10-06T09:42:10.004Z,50.902279
2023-10-06T09:43:10.052Z,50.902367
2023-10-06T09:44:10.206Z,50.902309
2023-10-06T09:45:10.041Z,50.902332
2023-10-06T09:46:10.140Z,50.902462
2023-10-06T09:47:10.155Z,50.902470
2023-10-06T09:48:10.056Z,50.902439
2023-10-06T09:49:10.101Z,50.902081
2023-10-06T09:50:10.001Z,50.902031
2023-10-06T09:51:09.944Z,50.902340
2023-10-06T09:52:09.934Z,50.902336
2023-10-06T09:53:09.972Z,50.902348
2023-10-06T09:54:10.079Z,50.902328
2023-10-06T09:55:10.618Z,50.902260
2023-10-06T09:56:09.913Z,50.902336
2023-10-06T09:57:09.911Z,50.902317
2023-10-06T09:58:09.912Z,50.902328
2023-10-06T09:59:09.908Z,50.902390
2023-10-06T10:00:09.871Z,50.902283
2023-10-06T10:01:09.941Z,50.902332
2023-10-06T10:02:10.009Z,50.902363
2023-10-06T10:03:09.930Z,50.902275
2023-10-06T10:04:10.042Z,50.902328
2023-10-06T10:05:09.840Z,50.902340
2023-10-06T10:06:09.836Z,50.902290
2023-10-06T10:07:09.900Z,50.902313
2023-10-06T10:08:09.835Z,50.902374
2023-10-06T10:09:09.826Z,50.902294
2023-10-06T10:10:09.790Z,50.902359
2023-10-06T10:11:09.837Z,50.902390
2023-10-06T10:12:09.802Z,50.902409
2023-10-06T10:13:09.798Z,50.902405
2023-10-06T10:14:10.073Z,50.902412
2023-10-06T10:15:09.753Z,50.902390
2023-10-06T10:16:09.782Z,50.902401
2023-10-06T10:17:09.808Z,50.902359
2023-10-06T10:18:09.770Z,50.902359
2023-10-06T10:19:09.756Z,50.902363
2023-10-06T10:20:09.745Z,50.902382
2023-10-06T10:21:09.704Z,50.902390
2023-10-06T10:22:09.700Z,50.902378
2023-10-06T10:23:09.801Z,50.902370
2023-10-06T10:24:49.462Z,50.902382
2023-10-06T10:25:24.602Z,50.902382
2023-10-06T10:26:11.686Z,50.902378
2023-10-06T10:27:09.688Z,50.902390
2023-10-06T10:28:09.682Z,50.902390
2023-10-06T10:29:09.687Z,50.902412
2023-10-06T10:30:09.646Z,50.902363
2023-10-06T10:31:09.660Z,50.902370
2023-10-06T10:32:09.664Z,50.902378
2023-10-06T10:33:09.691Z,50.902370
2023-10-06T10:34:24.468Z,50.902386
2023-10-06T10:35:11.651Z,50.902401
2023-10-06T10:36:09.621Z,50.902382
2023-10-06T10:37:09.611Z,50.902390
2023-10-06T10:38:09.582Z,50.902409
2023-10-06T10:39:09.648Z,50.902386
2023-10-06T10:40:09.555Z,50.902378
2023-10-06T10:41:09.611Z,50.902370
2023-10-06T10:42:09.564Z,50.902390
2023-10-06T10:43:10.623Z,50.902412
2023-10-06T10:44:19.098Z,50.902370
2023-10-06T10:45:11.521Z,50.902382
2023-10-06T10:46:09.622Z,50.902378
2023-10-06T10:47:09.551Z,50.902390
2023-10-06T10:48:09.551Z,50.902390
2023-10-06T10:49:09.480Z,50.902393
2023-10-06T10:50:09.518Z,50.902382
2023-10-06T10:51:09.502Z,50.902378
2023-10-06T10:52:09.457Z,50.902390
2023-10-06T10:53:09.485Z,50.902397
2023-10-06T10:54:10.778Z,50.902382
2023-10-06T10:55:09.537Z,50.902405
2023-10-06T10:56:09.516Z,50.902435
2023-10-06T10:57:09.435Z,50.902386
2023-10-06T10:58:09.420Z,50.902397
2023-10-06T10:59:09.482Z,50.902412
2023-10-06T11:00:09.412Z,50.902370
2023-10-06T11:01:09.393Z,50.902416
2023-10-06T11:02:09.466Z,50.902409
2023-10-06T11:03:10.191Z,50.902443
2023-10-06T11:04:09.532Z,50.902462
2023-10-06T11:05:09.407Z,50.902390
2023-10-06T11:06:09.369Z,50.902374
2023-10-06T11:07:09.400Z,50.902409
2023-10-06T11:08:09.415Z,50.902401
2023-10-06T11:09:09.345Z,50.902328
2023-10-06T11:10:09.403Z,50.902386
2023-10-06T11:11:09.429Z,50.902397
2023-10-06T11:12:23.561Z,50.902443
2023-10-06T11:13:11.288Z,50.902485
2023-10-06T11:14:09.586Z,50.902409
2023-10-06T11:15:10.230Z,50.902359
2023-10-06T11:16:09.289Z,50.902393
2023-10-06T11:17:09.318Z,50.902378
2023-10-06T11:18:09.327Z,50.902393
2023-10-06T11:19:09.363Z,50.902424
2023-10-06T11:20:09.263Z,50.902382
2023-10-06T11:21:09.860Z,50.902386
2023-10-06T11:22:09.226Z,50.902397
2023-10-06T11:23:09.233Z,50.902382
2023-10-06T11:24:09.438Z,50.902405